sensor_id;sensor_type;location;lat;lon;timestamp;P1;durP1;ratioP1;P2;durP2;ratioP2
69765;SDS011;57039;48.014;21.384;2023-01-01T00:00:36;82.53;;;29.45;;
69765;SDS011;57039;48.014;21.384;2023-01-01T00:01:40;84.45;;;29.30;;
69765;SDS011;57039;48.014;21.384;2023-01-01T00:02:44;62.90;;;28.17;;
69765;SDS011;57039;48.014;21.384;2023-01-01T00:03:53;68.93;;;28.83;;
69765;SDS011;57039;48.014;21.384;2023-01-01T00:04:57;65.00;;;28.92;;
69765;SDS011;57039;48.014;21.384;2023-01-01T00:06:04;73.23;;;28.47;;
69765;SDS011;57039;48.014;21.384;2023-01-01T00:07:11;85.50;;;28.80;;
69765;SDS011;57039;48.014;21.384;2023-01-01T00:08:14;72.90;;;28.05;;
69765;SDS011;57039;48.014;21.384;2023-01-01T00:09:17;64.95;;;28.62;;
69765;SDS011;57039;48.014;21.384;2023-01-01T00:10:38;70.68;;;29.75;;
69765;SDS011;57039;48.014;21.384;2023-01-01T00:11:41;89.95;;;30.58;;
69765;SDS011;57039;48.014;21.384;2023-01-01T00:12:44;64.32;;;28.35;;
69765;SDS011;57039;48.014;21.384;2023-01-01T00:13:47;67.53;;;28.33;;
69765;SDS011;57039;48.014;21.384;2023-01-01T00:14:51;62.65;;;28.40;;
69765;SDS011;57039;48.014;21.384;2023-01-01T00:15:54;67.05;;;28.83;;
69765;SDS011;57039;48.014;21.384;2023-01-01T00:16:57;75.07;;;31.00;;
69765;SDS011;57039;48.014;21.384;2023-01-01T00:18:00;67.33;;;32.33;;
69765;SDS011;57039;48.014;21.384;2023-01-01T00:19:03;69.85;;;30.70;;
69765;SDS011;57039;48.014;21.384;2023-01-01T00:20:06;55.10;;;27.58;;
69765;SDS011;57039;48.014;21.384;2023-01-01T00:21:13;64.45;;;29.17;;
69765;SDS011;57039;48.014;21.384;2023-01-01T00:22:16;60.90;;;27.50;;
69765;SDS011;57039;48.014;21.384;2023-01-01T00:23:40;70.15;;;26.50;;
69765;SDS011;57039;48.014;21.384;2023-01-01T00:24:43;71.12;;;26.55;;
69765;SDS011;57039;48.014;21.384;2023-01-01T00:25:45;62.15;;;28.95;;
69765;SDS011;57039;48.014;21.384;2023-01-01T00:26:48;70.62;;;30.60;;
69765;SDS011;57039;48.014;21.384;2023-01-01T00:27:52;77.20;;;29.00;;
69765;SDS011;57039;48.014;21.384;2023-01-01T00:28:55;57.37;;;29.60;;
69765;SDS011;57039;48.014;21.384;2023-01-01T00:29:57;53.45;;;27.15;;
69765;SDS011;57039;48.014;21.384;2023-01-01T00:31:07;91.12;;;30.75;;
69765;SDS011;57039;48.014;21.384;2023-01-01T00:32:20;66.95;;;27.50;;
69765;SDS011;57039;48.014;21.384;2023-01-01T00:33:24;85.43;;;27.33;;
69765;SDS011;57039;48.014;21.384;2023-01-01T00:34:28;62.53;;;26.35;;
69765;SDS011;57039;48.014;21.384;2023-01-01T00:35:30;69.40;;;27.10;;
69765;SDS011;57039;48.014;21.384;2023-01-01T00:36:35;63.97;;;26.45;;
69765;SDS011;57039;48.014;21.384;2023-01-01T00:37:38;80.28;;;25.33;;
69765;SDS011;57039;48.014;21.384;2023-01-01T00:38:48;56.67;;;24.57;;
69765;SDS011;57039;48.014;21.384;2023-01-01T00:39:52;64.40;;;25.20;;
69765;SDS011;57039;48.014;21.384;2023-01-01T00:40:54;53.40;;;24.02;;
69765;SDS011;57039;48.014;21.384;2023-01-01T00:41:58;57.17;;;25.05;;
69765;SDS011;57039;48.014;21.384;2023-01-01T00:43:00;57.20;;;25.02;;
69765;SDS011;57039;48.014;21.384;2023-01-01T00:44:03;59.90;;;26.42;;
69765;SDS011;57039;48.014;21.384;2023-01-01T00:45:07;59.95;;;24.85;;
69765;SDS011;57039;48.014;21.384;2023-01-01T00:46:10;49.50;;;24.55;;
69765;SDS011;57039;48.014;21.384;2023-01-01T00:47:14;46.35;;;25.52;;
69765;SDS011;57039;48.014;21.384;2023-01-01T00:48:17;51.35;;;25.50;;
69765;SDS011;57039;48.014;21.384;2023-01-01T00:49:21;48.20;;;24.37;;
69765;SDS011;57039;48.014;21.384;2023-01-01T00:50:24;53.60;;;23.87;;
69765;SDS011;57039;48.014;21.384;2023-01-01T00:51:27;66.47;;;24.45;;
69765;SDS011;57039;48.014;21.384;2023-01-01T00:52:38;43.42;;;23.67;;
69765;SDS011;57039;48.014;21.384;2023-01-01T00:53:41;60.70;;;24.87;;
69765;SDS011;57039;48.014;21.384;2023-01-01T00:54:44;57.88;;;23.40;;
69765;SDS011;57039;48.014;21.384;2023-01-01T00:55:48;75.32;;;23.98;;
69765;SDS011;57039;48.014;21.384;2023-01-01T00:56:52;39.92;;;23.95;;
69765;SDS011;57039;48.014;21.384;2023-01-01T00:57:55;54.38;;;25.65;;
69765;SDS011;57039;48.014;21.384;2023-01-01T00:58:58;37.28;;;24.33;;
69765;SDS011;57039;48.014;21.384;2023-01-01T01:00:03;49.30;;;24.43;;
69765;SDS011;57039;48.014;21.384;2023-01-01T01:01:10;38.03;;;23.43;;
69765;SDS011;57039;48.014;21.384;2023-01-01T01:02:13;39.38;;;23.40;;
69765;SDS011;57039;48.014;21.384;2023-01-01T01:03:16;41.05;;;23.40;;
69765;SDS011;57039;48.014;21.384;2023-01-01T01:04:32;46.45;;;24.05;;
69765;SDS011;57039;48.014;21.384;2023-01-01T01:05:37;52.83;;;23.77;;
69765;SDS011;57039;48.014;21.384;2023-01-01T01:06:40;49.00;;;22.85;;
69765;SDS011;57039;48.014;21.384;2023-01-01T01:07:43;55.10;;;22.55;;
69765;SDS011;57039;48.014;21.384;2023-01-01T01:08:46;47.58;;;22.87;;
69765;SDS011;57039;48.014;21.384;2023-01-01T01:09:49;48.80;;;24.77;;
69765;SDS011;57039;48.014;21.384;2023-01-01T01:10:52;65.40;;;29.17;;
69765;SDS011;57039;48.014;21.384;2023-01-01T01:11:56;82.63;;;30.67;;
69765;SDS011;57039;48.014;21.384;2023-01-01T01:13:19;91.82;;;33.08;;
69765;SDS011;57039;48.014;21.384;2023-01-01T01:14:22;87.22;;;33.70;;
69765;SDS011;57039;48.014;21.384;2023-01-01T01:15:25;82.47;;;28.45;;
69765;SDS011;57039;48.014;21.384;2023-01-01T01:16:31;57.62;;;25.08;;
69765;SDS011;57039;48.014;21.384;2023-01-01T01:17:36;67.43;;;24.85;;
69765;SDS011;57039;48.014;21.384;2023-01-01T01:18:39;72.25;;;24.98;;
69765;SDS011;57039;48.014;21.384;2023-01-01T01:19:44;55.03;;;22.65;;
69765;SDS011;57039;48.014;21.384;2023-01-01T01:20:51;44.80;;;23.17;;
69765;SDS011;57039;48.014;21.384;2023-01-01T01:21:55;54.90;;;22.67;;
69765;SDS011;57039;48.014;21.384;2023-01-01T01:22:58;74.00;;;21.67;;
69765;SDS011;57039;48.014;21.384;2023-01-01T01:24:02;103.65;;;22.08;;
69765;SDS011;57039;48.014;21.384;2023-01-01T01:25:05;87.65;;;23.02;;
69765;SDS011;57039;48.014;21.384;2023-01-01T01:26:09;72.15;;;22.75;;
69765;SDS011;57039;48.014;21.384;2023-01-01T01:27:15;78.85;;;21.10;;
69765;SDS011;57039;48.014;21.384;2023-01-01T01:28:21;75.05;;;21.48;;
69765;SDS011;57039;48.014;21.384;2023-01-01T01:29:24;66.18;;;21.48;;
69765;SDS011;57039;48.014;21.384;2023-01-01T01:30:26;47.45;;;20.48;;
69765;SDS011;57039;48.014;21.384;2023-01-01T01:31:30;99.57;;;22.35;;
69765;SDS011;57039;48.014;21.384;2023-01-01T01:32:34;68.13;;;20.63;;
69765;SDS011;57039;48.014;21.384;2023-01-01T01:33:37;92.40;;;21.83;;
69765;SDS011;57039;48.014;21.384;2023-01-01T01:34:40;90.28;;;20.73;;
69765;SDS011;57039;48.014;21.384;2023-01-01T01:35:49;82.37;;;20.88;;
69765;SDS011;57039;48.014;21.384;2023-01-01T01:36:53;89.62;;;20.48;;
69765;SDS011;57039;48.014;21.384;2023-01-01T01:37:56;71.65;;;21.05;;
69765;SDS011;57039;48.014;21.384;2023-01-01T01:38:59;67.65;;;21.85;;
69765;SDS011;57039;48.014;21.384;2023-01-01T01:40:03;74.03;;;21.83;;
69765;SDS011;57039;48.014;21.384;2023-01-01T01:41:07;132.63;;;22.92;;
69765;SDS011;57039;48.014;21.384;2023-01-01T01:42:16;59.92;;;21.62;;
69765;SDS011;57039;48.014;21.384;2023-01-01T01:43:24;55.23;;;21.43;;
69765;SDS011;57039;48.014;21.384;2023-01-01T01:44:49;48.13;;;21.37;;
69765;SDS011;57039;48.014;21.384;2023-01-01T01:46:09;43.70;;;21.45;;
69765;SDS011;57039;48.014;21.384;2023-01-01T01:47:20;60.90;;;22.60;;
69765;SDS011;57039;48.014;21.384;2023-01-01T01:48:37;53.25;;;22.40;;
69765;SDS011;57039;48.014;21.384;2023-01-01T01:49:43;53.75;;;23.10;;
69765;SDS011;57039;48.014;21.384;2023-01-01T01:50:47;73.57;;;21.77;;
69765;SDS011;57039;48.014;21.384;2023-01-01T01:51:51;55.47;;;22.10;;
69765;SDS011;57039;48.014;21.384;2023-01-01T01:53:03;46.70;;;21.75;;
69765;SDS011;57039;48.014;21.384;2023-01-01T01:54:11;51.00;;;22.05;;
69765;SDS011;57039;48.014;21.384;2023-01-01T01:55:19;52.93;;;21.23;;
69765;SDS011;57039;48.014;21.384;2023-01-01T01:56:28;36.87;;;19.23;;
69765;SDS011;57039;48.014;21.384;2023-01-01T01:58:01;45.55;;;20.92;;
69765;SDS011;57039;48.014;21.384;2023-01-01T01:59:06;52.35;;;20.45;;
69765;SDS011;57039;48.014;21.384;2023-01-01T02:00:09;40.17;;;21.35;;
69765;SDS011;57039;48.014;21.384;2023-01-01T02:01:13;41.08;;;23.50;;
69765;SDS011;57039;48.014;21.384;2023-01-01T02:02:38;60.47;;;23.20;;
69765;SDS011;57039;48.014;21.384;2023-01-01T02:03:56;57.53;;;21.80;;
69765;SDS011;57039;48.014;21.384;2023-01-01T02:05:02;48.45;;;21.30;;
69765;SDS011;57039;48.014;21.384;2023-01-01T02:06:05;59.63;;;22.87;;
69765;SDS011;57039;48.014;21.384;2023-01-01T02:07:09;69.60;;;23.63;;
69765;SDS011;57039;48.014;21.384;2023-01-01T02:08:15;58.23;;;24.77;;
69765;SDS011;57039;48.014;21.384;2023-01-01T02:09:18;57.20;;;23.33;;
69765;SDS011;57039;48.014;21.384;2023-01-01T02:10:22;82.75;;;24.83;;
69765;SDS011;57039;48.014;21.384;2023-01-01T02:11:25;68.93;;;23.58;;
69765;SDS011;57039;48.014;21.384;2023-01-01T02:12:28;62.67;;;23.55;;
69765;SDS011;57039;48.014;21.384;2023-01-01T02:13:31;73.03;;;23.92;;
69765;SDS011;57039;48.014;21.384;2023-01-01T02:14:34;47.85;;;24.05;;
69765;SDS011;57039;48.014;21.384;2023-01-01T02:15:38;60.85;;;24.00;;
69765;SDS011;57039;48.014;21.384;2023-01-01T02:16:54;47.78;;;23.65;;
69765;SDS011;57039;48.014;21.384;2023-01-01T02:18:03;57.73;;;22.03;;
69765;SDS011;57039;48.014;21.384;2023-01-01T02:22:29;38.00;;;20.17;;
69765;SDS011;57039;48.014;21.384;2023-01-01T02:26:55;37.70;;;21.02;;
69765;SDS011;57039;48.014;21.384;2023-01-01T02:28:09;57.35;;;27.55;;
69765;SDS011;57039;48.014;21.384;2023-01-01T02:30:37;61.15;;;29.25;;
69765;SDS011;57039;48.014;21.384;2023-01-01T02:31:45;60.73;;;26.37;;
69765;SDS011;57039;48.014;21.384;2023-01-01T02:33:12;46.13;;;23.23;;
69765;SDS011;57039;48.014;21.384;2023-01-01T02:34:20;48.95;;;21.73;;
69765;SDS011;57039;48.014;21.384;2023-01-01T02:35:28;41.35;;;22.08;;
69765;SDS011;57039;48.014;21.384;2023-01-01T02:36:42;37.45;;;20.55;;
69765;SDS011;57039;48.014;21.384;2023-01-01T02:37:52;39.22;;;21.25;;
69765;SDS011;57039;48.014;21.384;2023-01-01T02:38:59;41.60;;;22.73;;
69765;SDS011;57039;48.014;21.384;2023-01-01T02:40:06;42.05;;;21.92;;
69765;SDS011;57039;48.014;21.384;2023-01-01T02:41:11;39.97;;;22.62;;
69765;SDS011;57039;48.014;21.384;2023-01-01T02:42:17;38.85;;;22.30;;
69765;SDS011;57039;48.014;21.384;2023-01-01T02:43:21;39.93;;;21.97;;
69765;SDS011;57039;48.014;21.384;2023-01-01T02:44:27;34.30;;;21.33;;
69765;SDS011;57039;48.014;21.384;2023-01-01T02:45:33;41.75;;;22.62;;
69765;SDS011;57039;48.014;21.384;2023-01-01T02:46:37;48.50;;;22.55;;
69765;SDS011;57039;48.014;21.384;2023-01-01T02:47:40;44.85;;;22.60;;
69765;SDS011;57039;48.014;21.384;2023-01-01T02:48:44;60.55;;;22.67;;
69765;SDS011;57039;48.014;21.384;2023-01-01T02:49:56;57.13;;;23.67;;
69765;SDS011;57039;48.014;21.384;2023-01-01T02:51:02;50.22;;;23.52;;
69765;SDS011;57039;48.014;21.384;2023-01-01T02:52:18;64.18;;;23.50;;
69765;SDS011;57039;48.014;21.384;2023-01-01T02:53:51;46.97;;;20.52;;
69765;SDS011;57039;48.014;21.384;2023-01-01T02:55:23;58.20;;;21.43;;
69765;SDS011;57039;48.014;21.384;2023-01-01T02:57:50;43.15;;;19.15;;
69765;SDS011;57039;48.014;21.384;2023-01-01T03:01:20;58.13;;;20.33;;
69765;SDS011;57039;48.014;21.384;2023-01-01T03:06:08;51.17;;;19.20;;
69765;SDS011;57039;48.014;21.384;2023-01-01T03:10:17;60.77;;;20.37;;
69765;SDS011;57039;48.014;21.384;2023-01-01T03:11:24;69.00;;;21.63;;
69765;SDS011;57039;48.014;21.384;2023-01-01T03:12:39;47.62;;;19.80;;
69765;SDS011;57039;48.014;21.384;2023-01-01T03:14:15;84.75;;;19.60;;
69765;SDS011;57039;48.014;21.384;2023-01-01T03:15:41;57.50;;;21.20;;
69765;SDS011;57039;48.014;21.384;2023-01-01T03:17:08;68.85;;;22.50;;
69765;SDS011;57039;48.014;21.384;2023-01-01T03:20:23;55.03;;;23.52;;
69765;SDS011;57039;48.014;21.384;2023-01-01T03:21:26;56.42;;;22.27;;
69765;SDS011;57039;48.014;21.384;2023-01-01T03:22:29;65.62;;;21.83;;
69765;SDS011;57039;48.014;21.384;2023-01-01T03:23:35;54.60;;;21.13;;
69765;SDS011;57039;48.014;21.384;2023-01-01T03:24:41;62.13;;;20.58;;
69765;SDS011;57039;48.014;21.384;2023-01-01T03:25:48;53.40;;;21.30;;
69765;SDS011;57039;48.014;21.384;2023-01-01T03:26:53;71.53;;;21.80;;
69765;SDS011;57039;48.014;21.384;2023-01-01T03:27:59;51.90;;;22.13;;
69765;SDS011;57039;48.014;21.384;2023-01-01T03:29:05;93.95;;;22.73;;
69765;SDS011;57039;48.014;21.384;2023-01-01T03:30:10;58.63;;;22.45;;
69765;SDS011;57039;48.014;21.384;2023-01-01T03:31:14;48.55;;;23.25;;
69765;SDS011;57039;48.014;21.384;2023-01-01T03:32:21;53.42;;;22.15;;
69765;SDS011;57039;48.014;21.384;2023-01-01T03:34:04;63.05;;;20.85;;
69765;SDS011;57039;48.014;21.384;2023-01-01T03:35:10;39.33;;;19.30;;
69765;SDS011;57039;48.014;21.384;2023-01-01T03:36:32;50.53;;;20.13;;
69765;SDS011;57039;48.014;21.384;2023-01-01T03:37:37;71.47;;;21.58;;
69765;SDS011;57039;48.014;21.384;2023-01-01T03:38:59;67.70;;;21.17;;
69765;SDS011;57039;48.014;21.384;2023-01-01T03:40:07;86.20;;;21.55;;
69765;SDS011;57039;48.014;21.384;2023-01-01T03:43:30;44.28;;;18.83;;
69765;SDS011;57039;48.014;21.384;2023-01-01T03:45:02;49.25;;;20.25;;
69765;SDS011;57039;48.014;21.384;2023-01-01T03:46:25;44.90;;;20.52;;
69765;SDS011;57039;48.014;21.384;2023-01-01T03:47:46;65.40;;;20.62;;
69765;SDS011;57039;48.014;21.384;2023-01-01T03:49:04;76.33;;;21.27;;
69765;SDS011;57039;48.014;21.384;2023-01-01T03:50:27;76.60;;;20.65;;
69765;SDS011;57039;48.014;21.384;2023-01-01T03:53:40;53.35;;;21.67;;
69765;SDS011;57039;48.014;21.384;2023-01-01T03:55:10;61.83;;;20.88;;
69765;SDS011;57039;48.014;21.384;2023-01-01T03:56:45;57.15;;;21.15;;
69765;SDS011;57039;48.014;21.384;2023-01-01T03:58:01;76.05;;;23.60;;
69765;SDS011;57039;48.014;21.384;2023-01-01T03:59:14;53.95;;;23.48;;
69765;SDS011;57039;48.014;21.384;2023-01-01T04:00:33;66.68;;;24.52;;
69765;SDS011;57039;48.014;21.384;2023-01-01T04:01:40;65.28;;;24.05;;
69765;SDS011;57039;48.014;21.384;2023-01-01T04:02:58;79.03;;;24.43;;
69765;SDS011;57039;48.014;21.384;2023-01-01T04:04:05;70.50;;;23.17;;
69765;SDS011;57039;48.014;21.384;2023-01-01T04:05:09;62.88;;;23.83;;
69765;SDS011;57039;48.014;21.384;2023-01-01T04:06:14;99.53;;;25.60;;
69765;SDS011;57039;48.014;21.384;2023-01-01T04:07:17;91.22;;;26.73;;
69765;SDS011;57039;48.014;21.384;2023-01-01T04:08:21;91.40;;;25.05;;
69765;SDS011;57039;48.014;21.384;2023-01-01T04:09:28;113.60;;;25.40;;
69765;SDS011;57039;48.014;21.384;2023-01-01T04:10:33;82.55;;;24.80;;
69765;SDS011;57039;48.014;21.384;2023-01-01T04:11:39;69.32;;;26.45;;
69765;SDS011;57039;48.014;21.384;2023-01-01T04:13:05;74.75;;;25.58;;
69765;SDS011;57039;48.014;21.384;2023-01-01T04:14:08;101.00;;;24.70;;
69765;SDS011;57039;48.014;21.384;2023-01-01T04:15:12;62.53;;;23.87;;
69765;SDS011;57039;48.014;21.384;2023-01-01T04:16:15;62.83;;;22.37;;
69765;SDS011;57039;48.014;21.384;2023-01-01T04:17:18;91.07;;;23.08;;
69765;SDS011;57039;48.014;21.384;2023-01-01T04:18:21;86.82;;;23.42;;
69765;SDS011;57039;48.014;21.384;2023-01-01T04:19:24;79.93;;;22.90;;
69765;SDS011;57039;48.014;21.384;2023-01-01T04:20:27;95.12;;;23.95;;
69765;SDS011;57039;48.014;21.384;2023-01-01T04:21:30;121.10;;;22.75;;
69765;SDS011;57039;48.014;21.384;2023-01-01T04:22:34;114.93;;;23.80;;
69765;SDS011;57039;48.014;21.384;2023-01-01T04:23:37;117.03;;;22.62;;
69765;SDS011;57039;48.014;21.384;2023-01-01T04:24:40;84.50;;;22.40;;
69765;SDS011;57039;48.014;21.384;2023-01-01T04:25:43;98.70;;;23.30;;
69765;SDS011;57039;48.014;21.384;2023-01-01T04:26:47;103.22;;;23.15;;
69765;SDS011;57039;48.014;21.384;2023-01-01T04:27:50;60.05;;;23.70;;
69765;SDS011;57039;48.014;21.384;2023-01-01T04:28:53;73.03;;;23.00;;
69765;SDS011;57039;48.014;21.384;2023-01-01T04:29:56;91.32;;;23.17;;
69765;SDS011;57039;48.014;21.384;2023-01-01T04:31:00;57.92;;;23.40;;
69765;SDS011;57039;48.014;21.384;2023-01-01T04:32:04;117.00;;;28.65;;
69765;SDS011;57039;48.014;21.384;2023-01-01T04:33:07;76.25;;;25.48;;
69765;SDS011;57039;48.014;21.384;2023-01-01T04:34:10;63.55;;;23.52;;
69765;SDS011;57039;48.014;21.384;2023-01-01T04:35:13;59.73;;;21.50;;
69765;SDS011;57039;48.014;21.384;2023-01-01T04:36:16;70.67;;;21.23;;
69765;SDS011;57039;48.014;21.384;2023-01-01T04:37:19;84.15;;;22.45;;
69765;SDS011;57039;48.014;21.384;2023-01-01T04:38:22;104.65;;;22.80;;
69765;SDS011;57039;48.014;21.384;2023-01-01T04:39:25;100.50;;;23.62;;
69765;SDS011;57039;48.014;21.384;2023-01-01T04:40:28;99.37;;;22.87;;
69765;SDS011;57039;48.014;21.384;2023-01-01T04:41:31;66.80;;;22.02;;
69765;SDS011;57039;48.014;21.384;2023-01-01T04:42:34;66.80;;;21.58;;
69765;SDS011;57039;48.014;21.384;2023-01-01T04:43:37;87.70;;;23.08;;
69765;SDS011;57039;48.014;21.384;2023-01-01T04:44:40;53.63;;;24.17;;
69765;SDS011;57039;48.014;21.384;2023-01-01T04:45:43;48.67;;;23.23;;
69765;SDS011;57039;48.014;21.384;2023-01-01T04:46:46;57.77;;;22.27;;
69765;SDS011;57039;48.014;21.384;2023-01-01T04:47:49;55.65;;;22.95;;
69765;SDS011;57039;48.014;21.384;2023-01-01T04:48:52;39.35;;;21.92;;
69765;SDS011;57039;48.014;21.384;2023-01-01T04:49:55;41.95;;;22.35;;
69765;SDS011;57039;48.014;21.384;2023-01-01T04:50:59;42.62;;;22.10;;
69765;SDS011;57039;48.014;21.384;2023-01-01T04:52:03;41.67;;;23.12;;
69765;SDS011;57039;48.014;21.384;2023-01-01T04:53:06;49.03;;;22.52;;
69765;SDS011;57039;48.014;21.384;2023-01-01T04:54:09;53.92;;;24.90;;
69765;SDS011;57039;48.014;21.384;2023-01-01T04:55:13;49.33;;;24.85;;
69765;SDS011;57039;48.014;21.384;2023-01-01T04:56:17;51.03;;;22.70;;
69765;SDS011;57039;48.014;21.384;2023-01-01T04:57:21;55.43;;;25.00;;
69765;SDS011;57039;48.014;21.384;2023-01-01T04:58:25;48.03;;;25.20;;
69765;SDS011;57039;48.014;21.384;2023-01-01T04:59:28;47.80;;;24.15;;
69765;SDS011;57039;48.014;21.384;2023-01-01T05:00:32;64.22;;;25.27;;
69765;SDS011;57039;48.014;21.384;2023-01-01T05:01:35;47.47;;;24.50;;
69765;SDS011;57039;48.014;21.384;2023-01-01T05:02:38;49.97;;;25.08;;
69765;SDS011;57039;48.014;21.384;2023-01-01T05:03:41;52.42;;;25.62;;
69765;SDS011;57039;48.014;21.384;2023-01-01T05:04:44;49.63;;;26.00;;
69765;SDS011;57039;48.014;21.384;2023-01-01T05:05:57;41.88;;;23.85;;
69765;SDS011;57039;48.014;21.384;2023-01-01T05:07:04;37.57;;;22.13;;
69765;SDS011;57039;48.014;21.384;2023-01-01T05:08:06;38.72;;;22.42;;
69765;SDS011;57039;48.014;21.384;2023-01-01T05:09:10;37.13;;;22.10;;
69765;SDS011;57039;48.014;21.384;2023-01-01T05:10:13;34.47;;;21.98;;
69765;SDS011;57039;48.014;21.384;2023-01-01T05:11:21;35.90;;;23.05;;
69765;SDS011;57039;48.014;21.384;2023-01-01T05:12:25;37.30;;;23.30;;
69765;SDS011;57039;48.014;21.384;2023-01-01T05:13:28;36.78;;;22.62;;
69765;SDS011;57039;48.014;21.384;2023-01-01T05:14:32;38.05;;;22.83;;
69765;SDS011;57039;48.014;21.384;2023-01-01T05:15:35;37.55;;;23.48;;
69765;SDS011;57039;48.014;21.384;2023-01-01T05:16:39;33.58;;;21.42;;
69765;SDS011;57039;48.014;21.384;2023-01-01T05:17:42;33.33;;;22.30;;
69765;SDS011;57039;48.014;21.384;2023-01-01T05:18:45;34.33;;;22.50;;
69765;SDS011;57039;48.014;21.384;2023-01-01T05:19:49;36.28;;;22.23;;
69765;SDS011;57039;48.014;21.384;2023-01-01T05:20:52;39.22;;;23.30;;
69765;SDS011;57039;48.014;21.384;2023-01-01T05:21:55;44.30;;;22.60;;
69765;SDS011;57039;48.014;21.384;2023-01-01T05:22:58;72.65;;;23.58;;
69765;SDS011;57039;48.014;21.384;2023-01-01T05:24:03;69.28;;;26.02;;
69765;SDS011;57039;48.014;21.384;2023-01-01T05:25:08;67.10;;;24.12;;
69765;SDS011;57039;48.014;21.384;2023-01-01T05:26:13;53.60;;;23.73;;
69765;SDS011;57039;48.014;21.384;2023-01-01T05:27:18;56.10;;;22.42;;
69765;SDS011;57039;48.014;21.384;2023-01-01T05:28:21;69.90;;;23.13;;
69765;SDS011;57039;48.014;21.384;2023-01-01T05:29:25;123.72;;;24.48;;
69765;SDS011;57039;48.014;21.384;2023-01-01T05:30:28;123.32;;;23.83;;
69765;SDS011;57039;48.014;21.384;2023-01-01T05:31:33;72.78;;;24.05;;
69765;SDS011;57039;48.014;21.384;2023-01-01T05:32:38;109.22;;;25.98;;
69765;SDS011;57039;48.014;21.384;2023-01-01T05:33:41;171.80;;;30.33;;
69765;SDS011;57039;48.014;21.384;2023-01-01T05:34:45;87.55;;;26.92;;
69765;SDS011;57039;48.014;21.384;2023-01-01T05:35:52;111.50;;;29.45;;
69765;SDS011;57039;48.014;21.384;2023-01-01T05:36:56;108.65;;;30.48;;
69765;SDS011;57039;48.014;21.384;2023-01-01T05:38:00;95.70;;;30.95;;
69765;SDS011;57039;48.014;21.384;2023-01-01T05:39:06;92.07;;;30.40;;
69765;SDS011;57039;48.014;21.384;2023-01-01T05:40:11;130.23;;;30.17;;
69765;SDS011;57039;48.014;21.384;2023-01-01T05:41:15;128.23;;;31.08;;
69765;SDS011;57039;48.014;21.384;2023-01-01T05:42:18;248.87;;;47.00;;
69765;SDS011;57039;48.014;21.384;2023-01-01T05:43:22;232.57;;;51.92;;
69765;SDS011;57039;48.014;21.384;2023-01-01T05:44:25;163.70;;;39.97;;
69765;SDS011;57039;48.014;21.384;2023-01-01T05:45:28;117.75;;;28.38;;
69765;SDS011;57039;48.014;21.384;2023-01-01T05:46:31;94.20;;;26.83;;
69765;SDS011;57039;48.014;21.384;2023-01-01T05:47:34;167.27;;;38.65;;
69765;SDS011;57039;48.014;21.384;2023-01-01T05:48:37;171.95;;;41.75;;
69765;SDS011;57039;48.014;21.384;2023-01-01T05:49:40;97.17;;;31.70;;
69765;SDS011;57039;48.014;21.384;2023-01-01T05:50:43;66.83;;;25.90;;
69765;SDS011;57039;48.014;21.384;2023-01-01T05:51:49;101.60;;;26.27;;
69765;SDS011;57039;48.014;21.384;2023-01-01T05:52:53;102.62;;;25.45;;
69765;SDS011;57039;48.014;21.384;2023-01-01T05:53:57;115.35;;;29.17;;
69765;SDS011;57039;48.014;21.384;2023-01-01T05:55:00;98.25;;;27.90;;
69765;SDS011;57039;48.014;21.384;2023-01-01T05:56:04;77.68;;;26.67;;
69765;SDS011;57039;48.014;21.384;2023-01-01T05:57:09;84.87;;;27.05;;
69765;SDS011;57039;48.014;21.384;2023-01-01T05:58:12;69.87;;;27.37;;
69765;SDS011;57039;48.014;21.384;2023-01-01T05:59:15;76.25;;;30.42;;
69765;SDS011;57039;48.014;21.384;2023-01-01T06:00:17;83.27;;;29.73;;
69765;SDS011;57039;48.014;21.384;2023-01-01T06:01:23;79.68;;;28.65;;
69765;SDS011;57039;48.014;21.384;2023-01-01T06:02:29;89.35;;;30.23;;
69765;SDS011;57039;48.014;21.384;2023-01-01T06:03:33;133.85;;;40.95;;
69765;SDS011;57039;48.014;21.384;2023-01-01T06:04:36;172.75;;;48.92;;
69765;SDS011;57039;48.014;21.384;2023-01-01T06:05:40;157.30;;;39.38;;
69765;SDS011;57039;48.014;21.384;2023-01-01T06:06:43;157.65;;;34.58;;
69765;SDS011;57039;48.014;21.384;2023-01-01T06:07:45;109.32;;;31.58;;
69765;SDS011;57039;48.014;21.384;2023-01-01T06:08:51;63.17;;;25.73;;
69765;SDS011;57039;48.014;21.384;2023-01-01T06:09:55;72.40;;;25.00;;
69765;SDS011;57039;48.014;21.384;2023-01-01T06:11:02;61.77;;;22.67;;
69765;SDS011;57039;48.014;21.384;2023-01-01T06:12:06;50.70;;;22.70;;
69765;SDS011;57039;48.014;21.384;2023-01-01T06:13:11;37.85;;;20.98;;
69765;SDS011;57039;48.014;21.384;2023-01-01T06:14:14;46.37;;;21.17;;
69765;SDS011;57039;48.014;21.384;2023-01-01T06:15:17;41.10;;;21.87;;
69765;SDS011;57039;48.014;21.384;2023-01-01T06:16:20;45.47;;;20.88;;
69765;SDS011;57039;48.014;21.384;2023-01-01T06:17:24;34.60;;;19.87;;
69765;SDS011;57039;48.014;21.384;2023-01-01T06:18:31;30.42;;;19.80;;
69765;SDS011;57039;48.014;21.384;2023-01-01T06:19:35;37.38;;;18.90;;
69765;SDS011;57039;48.014;21.384;2023-01-01T06:20:38;30.12;;;19.33;;
69765;SDS011;57039;48.014;21.384;2023-01-01T06:21:41;33.20;;;21.50;;
69765;SDS011;57039;48.014;21.384;2023-01-01T06:22:44;30.40;;;19.97;;
69765;SDS011;57039;48.014;21.384;2023-01-01T06:23:47;30.12;;;19.27;;
69765;SDS011;57039;48.014;21.384;2023-01-01T06:24:51;29.67;;;19.42;;
69765;SDS011;57039;48.014;21.384;2023-01-01T06:25:55;32.55;;;20.00;;
69765;SDS011;57039;48.014;21.384;2023-01-01T06:26:57;30.02;;;19.70;;
69765;SDS011;57039;48.014;21.384;2023-01-01T06:28:01;33.83;;;22.25;;
69765;SDS011;57039;48.014;21.384;2023-01-01T06:29:04;34.85;;;22.37;;
69765;SDS011;57039;48.014;21.384;2023-01-01T06:30:08;30.77;;;20.88;;
69765;SDS011;57039;48.014;21.384;2023-01-01T06:31:12;35.45;;;21.08;;
69765;SDS011;57039;48.014;21.384;2023-01-01T06:32:17;30.97;;;20.63;;
69765;SDS011;57039;48.014;21.384;2023-01-01T06:33:20;42.88;;;23.05;;
69765;SDS011;57039;48.014;21.384;2023-01-01T06:34:23;34.70;;;21.60;;
69765;SDS011;57039;48.014;21.384;2023-01-01T06:35:26;35.35;;;22.30;;
69765;SDS011;57039;48.014;21.384;2023-01-01T06:36:30;38.05;;;23.30;;
69765;SDS011;57039;48.014;21.384;2023-01-01T06:37:33;42.05;;;24.70;;
69765;SDS011;57039;48.014;21.384;2023-01-01T06:38:38;44.40;;;24.55;;
69765;SDS011;57039;48.014;21.384;2023-01-01T06:39:42;37.47;;;23.65;;
69765;SDS011;57039;48.014;21.384;2023-01-01T06:40:54;35.58;;;22.25;;
69765;SDS011;57039;48.014;21.384;2023-01-01T06:42:02;37.85;;;23.25;;
69765;SDS011;57039;48.014;21.384;2023-01-01T06:43:05;38.40;;;22.70;;
69765;SDS011;57039;48.014;21.384;2023-01-01T06:44:08;37.55;;;21.40;;
69765;SDS011;57039;48.014;21.384;2023-01-01T06:45:11;38.60;;;23.70;;
69765;SDS011;57039;48.014;21.384;2023-01-01T06:47:20;36.78;;;23.48;;
69765;SDS011;57039;48.014;21.384;2023-01-01T06:48:23;39.65;;;23.92;;